createdAt,value
2019-05-09T00:02:34.735Z,46.60
2019-05-09T00:05:04.241Z,46.60
2019-05-09T00:07:33.774Z,46.60
2019-05-09T00:10:03.969Z,46.60
2019-05-09T00:12:33.702Z,46.70
2019-05-09T00:15:04.442Z,46.70
2019-05-09T00:17:34.252Z,46.70
2019-05-09T00:20:11.020Z,46.80
2019-05-09T00:22:40.411Z,46.80
2019-05-09T00:25:09.763Z,46.80
2019-05-09T00:27:39.092Z,46.80
2019-05-09T00:30:08.783Z,46.80
2019-05-09T00:32:40.010Z,46.90
2019-05-09T00:35:33.828Z,46.90
2019-05-09T00:38:07.668Z,47.10
2019-05-09T00:40:36.963Z,47.10
2019-05-09T00:43:06.403Z,47.10
2019-05-09T00:45:57.775Z,47.20
2019-05-09T00:48:33.676Z,47.20
2019-05-09T00:51:03.571Z,47.30
2019-05-09T00:53:33.980Z,47.30
2019-05-09T00:56:04.243Z,47.40
2019-05-09T00:58:33.815Z,47.50
2019-05-09T01:01:04.262Z,47.50
2019-05-09T01:03:34.215Z,47.50
2019-05-09T01:06:04.323Z,47.60
2019-05-09T01:08:33.841Z,48.20
2019-05-09T01:11:11.290Z,47.70
2019-05-09T01:13:35.122Z,47.90
2019-05-09T01:16:04.820Z,47.90
2019-05-09T01:18:34.858Z,48.00
2019-05-09T01:21:04.256Z,48.00
2019-05-09T01:23:34.304Z,48.10
2019-05-09T01:26:04.123Z,48.20
2019-05-09T01:28:34.010Z,48.20
2019-05-09T01:31:04.189Z,48.30
2019-05-09T01:33:53.426Z,48.40
2019-05-09T01:36:23.583Z,48.40
2019-05-09T01:38:53.990Z,48.50
2019-05-09T01:41:30.337Z,48.60
2019-05-09T01:43:54.426Z,48.60
2019-05-09T01:46:23.818Z,48.70
2019-05-09T01:48:53.917Z,48.80
2019-05-09T01:51:23.568Z,48.90
2019-05-09T01:53:54.748Z,49.00
2019-05-09T01:56:24.030Z,49.10
2019-05-09T01:58:53.972Z,49.10
2019-05-09T02:01:24.225Z,49.20
2019-05-09T02:03:53.899Z,49.30
2019-05-09T02:06:24.390Z,49.40
2019-05-09T02:08:54.729Z,49.40
2019-05-09T02:11:38.217Z,49.40
2019-05-09T02:13:55.182Z,49.50
2019-05-09T02:16:38.854Z,49.60
2019-05-09T02:19:18.588Z,49.60
2019-05-09T02:21:47.945Z,49.70
2019-05-09T02:24:17.303Z,49.70
2019-05-09T02:26:46.610Z,49.70
2019-05-09T02:29:15.926Z,49.80
2019-05-09T02:31:45.171Z,49.90
2019-05-09T02:34:35.716Z,49.90
2019-05-09T02:37:04.778Z,50.00
2019-05-09T02:39:34.135Z,50.10
2019-05-09T02:42:09.091Z,50.90
2019-05-09T02:44:34.594Z,50.20
2019-05-09T02:47:09.398Z,50.30
2019-05-09T02:49:39.160Z,50.30
2019-05-09T02:52:08.987Z,50.40
2019-05-09T02:54:39.247Z,50.40
2019-05-09T02:57:09.449Z,50.50
2019-05-09T03:00:01.818Z,50.50
2019-05-09T03:02:41.217Z,50.50
2019-05-09T03:05:10.916Z,50.60
2019-05-09T03:07:49.631Z,50.60
2019-05-09T03:10:19.942Z,50.60
2019-05-09T03:12:50.382Z,50.70
2019-05-09T03:15:20.247Z,50.70
2019-05-09T03:17:50.029Z,50.70
2019-05-09T03:20:29.103Z,50.80
2019-05-09T03:22:58.634Z,50.90
2019-05-09T03:25:28.880Z,50.90
2019-05-09T03:28:04.760Z,51.00
2019-05-09T03:30:39.799Z,51.00
2019-05-09T03:33:10.407Z,51.10
2019-05-09T03:35:39.036Z,51.00
2019-05-09T03:38:08.548Z,51.10
2019-05-09T03:40:38.401Z,51.10
2019-05-09T03:43:08.128Z,51.20
2019-05-09T03:45:48.082Z,51.30
2019-05-09T03:48:23.560Z,51.30
2019-05-09T03:50:52.846Z,51.30
2019-05-09T03:53:22.185Z,51.30
2019-05-09T03:55:53.175Z,51.30
2019-05-09T03:58:22.900Z,51.90
2019-05-09T04:00:52.172Z,51.40
2019-05-09T04:03:21.479Z,51.30
2019-05-09T04:05:58.682Z,51.30
2019-05-09T04:08:21.870Z,51.40
2019-05-09T04:10:54.283Z,51.50
2019-05-09T04:13:28.331Z,51.50
2019-05-09T04:15:58.293Z,51.50
2019-05-09T04:18:27.818Z,51.50
2019-05-09T04:20:57.414Z,51.60
2019-05-09T04:23:27.600Z,51.70
2019-05-09T04:26:03.295Z,51.70
2019-05-09T04:28:32.592Z,51.80
2019-05-09T04:31:01.999Z,51.90
2019-05-09T04:33:31.320Z,51.90
2019-05-09T04:36:00.731Z,51.90
2019-05-09T04:38:30.132Z,51.80
2019-05-09T04:40:59.419Z,52.00
2019-05-09T04:43:35.540Z,52.00
2019-05-09T04:46:01.483Z,52.00
2019-05-09T04:48:31.433Z,52.00
2019-05-09T04:51:01.744Z,52.00
2019-05-09T04:53:31.059Z,52.10
2019-05-09T04:56:07.216Z,52.10
2019-05-09T04:58:37.624Z,52.20
2019-05-09T05:01:29.024Z,52.00
2019-05-09T05:03:58.814Z,52.10
2019-05-09T05:06:28.203Z,52.00
2019-05-09T05:08:58.616Z,51.90
2019-05-09T05:11:28.219Z,51.90
2019-05-09T05:13:58.662Z,51.90
2019-05-09T05:16:28.245Z,52.00
2019-05-09T05:18:58.361Z,51.90
2019-05-09T05:21:28.493Z,52.00
2019-05-09T05:24:19.911Z,52.00
2019-05-09T05:26:49.255Z,51.90
2019-05-09T05:29:19.063Z,51.90
2019-05-09T05:31:48.695Z,52.00
2019-05-09T05:34:24.090Z,51.80
2019-05-09T05:36:53.410Z,51.70
2019-05-09T05:39:22.764Z,51.70
2019-05-09T05:41:52.087Z,51.70
2019-05-09T05:44:21.362Z,51.70
2019-05-09T05:47:11.313Z,51.60
2019-05-09T05:49:40.574Z,51.50
2019-05-09T05:52:09.854Z,51.50
2019-05-09T05:54:39.165Z,51.60
2019-05-09T05:57:08.659Z,51.60
2019-05-09T05:59:40.736Z,51.60
2019-05-09T06:02:09.050Z,51.50
2019-05-09T06:04:38.420Z,51.30
2019-05-09T06:07:08.214Z,51.20
2019-05-09T06:09:38.022Z,51.80
2019-05-09T06:12:08.334Z,51.10
2019-05-09T06:14:38.069Z,51.20
2019-05-09T06:17:08.209Z,51.30
2019-05-09T06:19:38.099Z,51.30
2019-05-09T06:22:08.413Z,51.30
2019-05-09T06:24:38.745Z,51.20
2019-05-09T06:27:10.394Z,51.20
2019-05-09T06:29:39.318Z,51.20
2019-05-09T06:32:08.603Z,51.10
2019-05-09T06:34:41.877Z,51.10
2019-05-09T06:37:09.399Z,51.70
2019-05-09T06:39:38.992Z,51.60
2019-05-09T06:42:09.250Z,51.00
2019-05-09T06:44:47.967Z,50.90
2019-05-09T06:47:45.297Z,50.90
2019-05-09T06:50:18.451Z,50.80
2019-05-09T06:52:48.010Z,50.80
2019-05-09T06:55:17.426Z,50.90
2019-05-09T06:57:48.848Z,50.80
2019-05-09T07:00:28.314Z,50.70
2019-05-09T07:03:08.043Z,50.50
2019-05-09T07:06:14.124Z,50.50
2019-05-09T07:09:08.547Z,50.60
2019-05-09T07:11:38.145Z,50.40
2019-05-09T07:14:10.322Z,50.30
2019-05-09T07:16:39.913Z,50.10
2019-05-09T07:19:09.169Z,50.10
2019-05-09T07:21:57.932Z,50.10
2019-05-09T07:24:28.650Z,50.10
2019-05-09T07:26:58.415Z,50.10
2019-05-09T07:29:28.750Z,49.90
2019-05-09T07:32:07.657Z,49.80
2019-05-09T07:34:41.377Z,49.70
2019-05-09T07:37:10.721Z,49.70
2019-05-09T07:39:40.149Z,49.80
2019-05-09T07:42:09.484Z,49.90
2019-05-09T07:44:48.449Z,50.00
2019-05-09T07:47:09.854Z,49.90
2019-05-09T07:49:39.196Z,49.90
2019-05-09T07:52:10.299Z,49.80
2019-05-09T07:54:39.420Z,49.80
2019-05-09T07:57:08.771Z,50.00
2019-05-09T07:59:38.893Z,49.90
2019-05-09T08:02:08.871Z,49.90
2019-05-09T08:04:38.723Z,49.90
2019-05-09T08:07:08.556Z,50.10
2019-05-09T08:09:38.734Z,50.00
2019-05-09T08:12:08.336Z,50.60
2019-05-09T08:14:37.922Z,50.00
2019-05-09T08:17:08.585Z,50.00
2019-05-09T08:19:38.340Z,50.00
2019-05-09T08:22:08.137Z,50.10
2019-05-09T08:24:38.100Z,50.20
2019-05-09T08:27:08.550Z,50.20
2019-05-09T08:29:38.707Z,50.30
2019-05-09T08:32:08.148Z,50.40
2019-05-09T08:34:37.910Z,50.50
2019-05-09T08:37:08.154Z,50.60
2019-05-09T08:39:38.386Z,50.70
2019-05-09T08:42:08.779Z,51.40
2019-05-09T08:44:41.893Z,51.00
2019-05-09T08:47:09.219Z,51.20
2019-05-09T08:49:49.657Z,51.30
2019-05-09T08:52:19.852Z,52.20
2019-05-09T08:54:52.636Z,51.80
2019-05-09T08:57:22.015Z,52.00
2019-05-09T08:59:51.335Z,52.40
2019-05-09T09:02:22.334Z,52.70
2019-05-09T09:04:51.727Z,53.10
2019-05-09T09:07:21.067Z,53.50
2019-05-09T09:09:50.401Z,53.90
2019-05-09T09:12:30.414Z,54.30
2019-05-09T09:14:50.719Z,54.30
2019-05-09T09:17:20.008Z,54.60
2019-05-09T09:19:49.267Z,54.80
2019-05-09T09:22:18.558Z,54.70
2019-05-09T09:24:48.324Z,54.80
2019-05-09T09:27:18.366Z,55.10
2019-05-09T09:29:48.189Z,55.50
2019-05-09T09:32:19.001Z,56.00
2019-05-09T09:34:48.673Z,56.50
2019-05-09T09:37:18.636Z,57.20
2019-05-09T09:39:48.760Z,57.80
2019-05-09T09:42:20.009Z,58.20
2019-05-09T09:44:49.295Z,58.40
2019-05-09T09:47:23.075Z,58.60
2019-05-09T09:49:49.666Z,58.60
2019-05-09T09:52:19.017Z,58.40
2019-05-09T09:54:48.384Z,58.50
2019-05-09T09:57:18.983Z,58.50
2019-05-09T10:00:07.624Z,58.60
2019-05-09T10:02:38.023Z,59.00
2019-05-09T10:05:07.863Z,59.30
2019-05-09T10:07:38.467Z,59.60
2019-05-09T10:10:09.025Z,59.70
2019-05-09T10:12:44.401Z,59.90
2019-05-09T10:15:28.514Z,59.90
2019-05-09T10:18:18.275Z,59.90
2019-05-09T10:20:58.564Z,59.90
2019-05-09T10:23:28.078Z,60.00
2019-05-09T10:25:58.148Z,60.00
2019-05-09T10:28:30.086Z,60.10
2019-05-09T10:30:58.769Z,60.40
2019-05-09T10:33:28.178Z,60.50
2019-05-09T10:36:04.574Z,60.90
2019-05-09T10:38:28.481Z,61.30
2019-05-09T10:41:01.194Z,61.50
2019-05-09T10:43:57.865Z,61.70
2019-05-09T10:46:56.872Z,61.90
2019-05-09T10:49:19.981Z,62.00
2019-05-09T10:51:49.365Z,62.30
2019-05-09T10:54:18.792Z,63.00
2019-05-09T10:56:48.712Z,63.80
2019-05-09T10:59:18.472Z,64.30
2019-05-09T11:01:49.686Z,64.50
2019-05-09T11:04:19.157Z,64.70
2019-05-09T11:06:48.649Z,64.70
2019-05-09T11:09:18.380Z,64.60
2019-05-09T11:11:48.516Z,64.40
2019-05-09T11:14:32.716Z,64.20
2019-05-09T11:16:54.198Z,63.90
2019-05-09T11:19:20.249Z,63.80
2019-05-09T11:21:49.574Z,63.40
2019-05-09T11:24:19.123Z,64.40
2019-05-09T11:26:48.499Z,64.30
2019-05-09T11:29:18.775Z,63.50
2019-05-09T11:31:48.338Z,63.50
2019-05-09T11:34:18.892Z,63.40
2019-05-09T11:36:49.822Z,63.20
2019-05-09T11:39:35.299Z,63.00
2019-05-09T11:41:50.312Z,63.00
2019-05-09T11:44:19.820Z,62.90
2019-05-09T11:46:49.092Z,62.60
2019-05-09T11:49:18.497Z,62.20
2019-05-09T11:51:48.300Z,61.60
2019-05-09T11:54:19.441Z,61.30
2019-05-09T11:56:48.707Z,61.30
2019-05-09T11:59:18.952Z,61.20
2019-05-09T12:01:48.515Z,61.30
2019-05-09T12:04:18.678Z,61.30
2019-05-09T12:06:49.344Z,61.20
2019-05-09T12:09:18.948Z,60.90
2019-05-09T12:11:48.550Z,60.90
2019-05-09T12:14:17.865Z,61.10
2019-05-09T12:16:48.065Z,61.50
2019-05-09T12:19:18.119Z,61.80
2019-05-09T12:21:48.446Z,62.10
2019-05-09T12:24:18.530Z,62.00
2019-05-09T12:26:48.340Z,62.20
2019-05-09T12:29:19.564Z,62.50
2019-05-09T12:31:48.766Z,62.70
2019-05-09T12:34:19.299Z,62.70
2019-05-09T12:36:49.735Z,62.60
2019-05-09T12:39:19.351Z,62.90
2019-05-09T12:41:48.725Z,63.30
2019-05-09T12:44:18.456Z,63.80
2019-05-09T12:46:48.774Z,64.10
2019-05-09T12:49:19.137Z,64.70
2019-05-09T12:51:48.612Z,65.00
2019-05-09T12:54:19.095Z,65.30
2019-05-09T12:56:48.780Z,65.80
2019-05-09T12:59:18.852Z,66.60
2019-05-09T13:01:49.243Z,67.30
2019-05-09T13:04:18.826Z,67.70
2019-05-09T13:06:48.816Z,68.20
2019-05-09T13:09:18.411Z,68.60
2019-05-09T13:11:48.350Z,69.10
2019-05-09T13:14:19.317Z,69.60
2019-05-09T13:17:08.170Z,70.00
2019-05-09T13:19:43.698Z,70.30
2019-05-09T13:22:13.083Z,70.50
2019-05-09T13:24:42.421Z,70.50
2019-05-09T13:27:11.821Z,70.70
2019-05-09T13:29:41.176Z,70.90
2019-05-09T13:32:10.582Z,71.10
2019-05-09T13:34:39.903Z,71.30
2019-05-09T13:37:09.496Z,71.50
2019-05-09T13:39:39.754Z,71.60
2019-05-09T13:42:09.255Z,71.70
2019-05-09T13:44:41.234Z,71.70
2019-05-09T13:47:11.015Z,71.70
2019-05-09T13:49:40.554Z,71.70
2019-05-09T13:52:10.259Z,71.90
2019-05-09T13:54:39.749Z,71.70
2019-05-09T13:57:09.109Z,71.50
2019-05-09T13:59:38.430Z,71.50
2019-05-09T14:02:07.829Z,71.80
2019-05-09T14:04:39.629Z,72.10
2019-05-09T14:07:08.501Z,72.30
2019-05-09T14:09:38.619Z,72.40
2019-05-09T14:12:09.312Z,72.80
2019-05-09T14:14:39.001Z,72.90
2019-05-09T14:17:08.927Z,73.10
2019-05-09T14:19:45.763Z,73.50
2019-05-09T14:22:10.149Z,73.80
2019-05-09T14:24:39.478Z,74.00
2019-05-09T14:27:08.775Z,74.20
2019-05-09T14:29:38.479Z,74.50
2019-05-09T14:32:08.066Z,74.60
2019-05-09T14:34:38.214Z,74.60
2019-05-09T14:37:09.573Z,74.90
2019-05-09T14:39:53.820Z,75.20
2019-05-09T14:42:10.222Z,75.50
2019-05-09T14:44:39.641Z,75.90
2019-05-09T14:47:09.085Z,75.80
2019-05-09T14:49:41.384Z,76.60
2019-05-09T14:52:09.377Z,76.30
2019-05-09T14:54:39.308Z,76.40
2019-05-09T14:57:09.684Z,76.30
2019-05-09T14:59:39.177Z,76.40
2019-05-09T15:02:09.287Z,76.40
2019-05-09T15:04:38.831Z,76.60
2019-05-09T15:07:08.161Z,76.70
2019-05-09T15:09:37.433Z,76.80
2019-05-09T15:12:06.845Z,77.00
2019-05-09T15:14:38.338Z,76.80
2019-05-09T15:17:08.781Z,76.70
2019-05-09T15:19:38.701Z,76.70
2019-05-09T15:22:08.635Z,76.70
2019-05-09T15:24:38.807Z,76.70
2019-05-09T15:27:08.342Z,76.90
2019-05-09T15:29:39.102Z,76.80
2019-05-09T15:32:12.056Z,76.80
2019-05-09T15:34:39.652Z,76.80
2019-05-09T15:37:08.975Z,76.90
2019-05-09T15:39:38.331Z,77.70
2019-05-09T15:42:07.648Z,77.10
2019-05-09T15:44:37.043Z,77.00
2019-05-09T15:47:12.545Z,76.90
2019-05-09T15:49:41.816Z,76.70
2019-05-09T15:52:11.132Z,76.80
2019-05-09T15:54:40.413Z,77.00
2019-05-09T15:57:09.734Z,77.20
2019-05-09T15:59:39.186Z,77.30
2019-05-09T16:02:09.257Z,77.40
2019-05-09T16:04:40.147Z,77.50
2019-05-09T16:07:09.850Z,77.60
2019-05-09T16:09:39.145Z,77.60
2019-05-09T16:12:08.461Z,77.80
2019-05-09T16:14:38.170Z,78.00
2019-05-09T16:17:07.900Z,77.90
2019-05-09T16:19:37.802Z,77.90
2019-05-09T16:22:07.972Z,78.00
2019-05-09T16:24:38.149Z,78.10
2019-05-09T16:27:08.479Z,78.10
2019-05-09T16:29:38.260Z,78.20
2019-05-09T16:32:08.843Z,78.30
2019-05-09T16:34:38.771Z,78.30
2019-05-09T16:37:08.147Z,78.30
2019-05-09T16:39:37.856Z,78.20
2019-05-09T16:42:07.363Z,78.00
2019-05-09T16:44:37.815Z,78.10
2019-05-09T16:47:08.376Z,78.10
2019-05-09T16:49:38.660Z,77.90
2019-05-09T16:52:08.251Z,77.90
2019-05-09T16:54:40.335Z,77.80
2019-05-09T16:57:09.654Z,77.70
2019-05-09T16:59:39.018Z,77.70
2019-05-09T17:02:18.773Z,77.70
2019-05-09T17:04:39.270Z,77.70
2019-05-09T17:07:08.592Z,77.80
2019-05-09T17:09:41.701Z,77.70
2019-05-09T17:12:10.994Z,78.30
2019-05-09T17:14:40.346Z,77.50
2019-05-09T17:17:09.658Z,77.50
2019-05-09T17:19:38.925Z,77.60
2019-05-09T17:22:18.507Z,77.70
2019-05-09T17:24:49.623Z,77.70
2019-05-09T17:27:19.067Z,77.70
2019-05-09T17:29:48.418Z,77.20
2019-05-09T17:32:18.275Z,77.60
2019-05-09T17:34:47.834Z,77.60
2019-05-09T17:37:17.740Z,77.70
2019-05-09T17:39:47.482Z,77.70
2019-05-09T17:42:18.347Z,77.80
2019-05-09T17:44:48.842Z,77.90
2019-05-09T17:47:18.298Z,78.00
2019-05-09T17:49:48.272Z,78.00
2019-05-09T17:52:18.357Z,78.00
2019-05-09T17:54:48.516Z,78.00
2019-05-09T17:57:18.780Z,78.10
2019-05-09T17:59:49.005Z,78.10
2019-05-09T18:02:18.536Z,78.20
2019-05-09T18:04:48.248Z,78.30
2019-05-09T18:07:18.151Z,78.40
2019-05-09T18:09:48.331Z,78.50
2019-05-09T18:12:18.945Z,78.50
2019-05-09T18:14:48.521Z,78.60
2019-05-09T18:17:18.325Z,78.60
2019-05-09T18:19:47.696Z,79.30
2019-05-09T18:22:18.630Z,79.00
2019-05-09T18:24:48.355Z,79.20
2019-05-09T18:27:18.263Z,79.40
2019-05-09T18:29:47.769Z,79.50
2019-05-09T18:32:32.844Z,79.70
2019-05-09T18:35:30.053Z,79.80
2019-05-09T18:37:59.697Z,80.00
2019-05-09T18:40:28.968Z,79.80
2019-05-09T18:42:58.549Z,80.00
2019-05-09T18:45:28.364Z,80.00
2019-05-09T18:47:58.209Z,80.10
2019-05-09T18:50:27.553Z,80.10
2019-05-09T18:52:56.865Z,80.30
2019-05-09T18:55:26.197Z,80.90
2019-05-09T18:57:55.501Z,80.30
2019-05-09T19:00:25.181Z,80.30
2019-05-09T19:02:54.530Z,80.30
2019-05-09T19:05:23.836Z,80.40
2019-05-09T19:07:53.156Z,80.70
2019-05-09T19:10:22.424Z,80.50
2019-05-09T19:12:51.732Z,80.50
2019-05-09T19:15:28.104Z,80.60
2019-05-09T19:18:04.526Z,80.60
2019-05-09T19:20:45.476Z,80.50
2019-05-09T19:23:14.860Z,80.50
2019-05-09T19:25:44.237Z,80.50
2019-05-09T19:28:13.545Z,80.60
2019-05-09T19:30:42.904Z,80.70
2019-05-09T19:33:12.185Z,80.90
2019-05-09T19:35:41.559Z,80.90
2019-05-09T19:38:10.836Z,81.00
2019-05-09T19:40:40.107Z,81.00
2019-05-09T19:43:09.444Z,81.00
2019-05-09T19:45:38.760Z,81.00
2019-05-09T19:48:08.172Z,81.00
2019-05-09T19:50:37.424Z,81.10
2019-05-09T19:53:09.991Z,81.20
2019-05-09T19:55:37.779Z,81.20
2019-05-09T19:58:07.095Z,81.20
2019-05-09T20:00:36.401Z,81.30
2019-05-09T20:03:05.759Z,81.20
2019-05-09T20:05:35.137Z,81.10
2019-05-09T20:08:04.476Z,81.10
2019-05-09T20:10:51.656Z,81.00
2019-05-09T20:13:51.992Z,81.00
2019-05-09T20:16:21.351Z,80.90
2019-05-09T20:18:50.663Z,80.90
2019-05-09T20:21:19.976Z,80.80
2019-05-09T20:23:49.303Z,80.80
2019-05-09T20:26:18.696Z,80.90
2019-05-09T20:28:47.957Z,80.90
2019-05-09T20:31:17.289Z,80.80
2019-05-09T20:33:46.623Z,80.80
2019-05-09T20:36:15.882Z,80.70
2019-05-09T20:38:45.389Z,80.80
2019-05-09T20:41:14.875Z,80.70
2019-05-09T20:43:44.439Z,80.80
2019-05-09T20:46:13.927Z,80.70
2019-05-09T20:48:43.447Z,80.60
2019-05-09T20:51:13.038Z,80.70
2019-05-09T20:53:42.628Z,80.70
2019-05-09T20:56:12.152Z,80.60
2019-05-09T20:58:41.619Z,80.50
2019-05-09T21:01:11.097Z,80.60
2019-05-09T21:03:40.570Z,80.70
2019-05-09T21:06:10.038Z,80.60
2019-05-09T21:08:39.572Z,80.60
2019-05-09T21:11:09.084Z,80.70
2019-05-09T21:13:48.117Z,80.70
2019-05-09T21:16:09.678Z,80.80
2019-05-09T21:18:39.306Z,80.80
2019-05-09T21:21:08.785Z,80.80
2019-05-09T21:23:38.350Z,80.80
2019-05-09T21:26:07.859Z,80.80
2019-05-09T21:28:37.334Z,80.90
2019-05-09T21:31:06.866Z,80.90
2019-05-09T21:33:36.414Z,80.90
2019-05-09T21:36:05.792Z,81.00
2019-05-09T21:38:35.098Z,81.00
2019-05-09T21:41:04.370Z,81.10
2019-05-09T21:43:33.818Z,81.20
2019-05-09T21:46:03.286Z,81.20
2019-05-09T21:48:32.618Z,81.40
2019-05-09T21:51:01.896Z,81.40
2019-05-09T21:53:40.566Z,81.50
2019-05-09T21:56:02.296Z,81.50
2019-05-09T21:58:31.650Z,81.60
2019-05-09T22:01:01.582Z,81.70
2019-05-09T22:03:30.885Z,81.80
2019-05-09T22:06:00.150Z,81.80
2019-05-09T22:08:29.458Z,81.80
2019-05-09T22:10:58.833Z,81.80
2019-05-09T22:13:28.161Z,81.90
2019-05-09T22:16:16.627Z,81.90
2019-05-09T22:18:46.065Z,81.90
2019-05-09T22:21:24.378Z,82.00
2019-05-09T22:23:56.708Z,81.90
2019-05-09T22:26:24.665Z,82.00
2019-05-09T22:28:54.038Z,82.10
2019-05-09T22:31:23.404Z,82.10
2019-05-09T22:33:52.722Z,82.10
2019-05-09T22:36:22.048Z,82.00
2019-05-09T22:38:51.444Z,82.00
2019-05-09T22:41:20.708Z,82.10
2019-05-09T22:43:50.108Z,82.10
2019-05-09T22:46:19.416Z,82.10
2019-05-09T22:48:48.689Z,82.00
2019-05-09T22:51:18.060Z,81.80
2019-05-09T22:53:47.348Z,81.70
2019-05-09T22:56:16.632Z,81.60
2019-05-09T22:58:46.027Z,81.60
2019-05-09T23:01:15.379Z,81.50
2019-05-09T23:03:44.689Z,81.50
2019-05-09T23:06:13.968Z,81.50
2019-05-09T23:08:43.252Z,81.50
2019-05-09T23:11:12.548Z,82.30
2019-05-09T23:13:53.944Z,81.40
2019-05-09T23:16:24.511Z,81.60
2019-05-09T23:18:54.169Z,81.50
2019-05-09T23:21:25.329Z,81.40
2019-05-09T23:24:00.608Z,81.50
2019-05-09T23:26:29.904Z,81.60
2019-05-09T23:28:59.246Z,81.60
2019-05-09T23:31:39.908Z,81.60
2019-05-09T23:34:09.295Z,81.60
2019-05-09T23:36:38.704Z,81.40
2019-05-09T23:39:18.527Z,81.30
2019-05-09T23:41:47.821Z,81.10
2019-05-09T23:44:17.127Z,81.10
2019-05-09T23:46:46.512Z,81.10
2019-05-09T23:49:15.995Z,81.00
2019-05-09T23:51:45.950Z,80.70
2019-05-09T23:54:45.418Z,80.40
2019-05-09T23:57:24.540Z,80.40
